Olathe, Kansas
Current Conditions -  °F | °C
As of 5:27 AM on Saturday 20 Dec 2014 (Local Time) from KIXD Reporting Station
Overcast Overcast  
Wind Chill: 32°   Ceiling: 1400
Heat Index: 32°   Visibility: 7mi
Dew Point: 31°   Wind: 3mph
Humidity: 96%   Direction: 190°S
Pressure: 30.19"   Gusts: NA
Location:  38.88°N, 94.82°W
Report Text: KIXD 201127Z AUTO 19003KT 7SM OVC014 00/M01 A3019 RMK AO2 T00001006
Loading
Personal Weather Stations






























Interactive Weather Map New forecast layout! Learn more

10-Day Weather Forecast

Advertisements
Track Severe Weather on mobile